Time;durP1;ratioP1;P1;durP2;ratioP2;P2;SDS_P1;SDS_P2;PMS_P1;PMS_P2;Temp;Humidity;BMP_temperature;BMP_pressure;BME280_temperature;BME280_humidity;BME280_pressure;Samples;Min_cycle;Max_cycle;Signal;HPM_P1;HPM_P2
2023/04/20 00:00:58;;;;;;;32.10;16.10;;;;;;;5.62;90.60;100661.08;106631;1270;22582;-56
2023/04/20 00:03:28;;;;;;;31.10;16.50;;;;;;;5.59;90.54;100663.98;106549;1276;22653;-58
2023/04/20 00:06:00;;;;;;;31.20;15.50;;;;;;;5.57;90.54;100665.30;106581;1276;22549;-57
2023/04/20 00:08:31;;;;;;;30.40;14.90;;;;;;;5.57;90.60;100661.36;110030;1272;22328;-57
2023/04/20 00:11:02;;;;;;;34.10;16.30;;;;;;;5.57;90.71;100663.88;110032;1273;23277;-59
2023/04/20 00:13:33;;;;;;;31.90;17.30;;;;;;;5.61;90.58;100666.65;110046;1273;23020;-58
2023/04/20 00:16:04;;;;;;;33.80;16.60;;;;;;;5.63;90.62;100671.01;110025;1276;22677;-59
2023/04/20 00:18:35;;;;;;;31.40;17.10;;;;;;;5.67;90.63;100667.74;110033;1270;22325;-58
2023/04/20 00:21:06;;;;;;;36.50;17.10;;;;;;;5.70;90.59;100670.98;110014;1273;22298;-58
2023/04/20 00:23:37;;;;;;;30.50;16.20;;;;;;;5.74;90.65;100669.84;110023;1273;23065;-59
2023/04/20 00:26:08;;;;;;;30.50;15.30;;;;;;;5.77;90.62;100673.50;110076;1271;22261;-56
2023/04/20 00:28:38;;;;;;;29.60;15.40;;;;;;;5.79;90.53;100676.47;110085;1279;23112;-58
2023/04/20 00:31:09;;;;;;;31.60;13.90;;;;;;;5.79;90.53;100676.63;110035;1276;22198;-59
2023/04/20 00:33:40;;;;;;;31.30;15.40;;;;;;;5.76;90.48;100671.94;110056;1269;22409;-58
2023/04/20 00:36:11;;;;;;;30.40;15.00;;;;;;;5.74;90.66;100671.52;110037;1273;22899;-58
2023/04/20 00:38:42;;;;;;;29.50;14.10;;;;;;;5.72;90.65;100665.63;110048;1270;22148;-57
2023/04/20 00:41:13;;;;;;;27.80;13.70;;;;;;;5.71;90.96;100663.67;110033;1264;22873;-58
2023/04/20 00:43:52;;;;;;;26.50;13.50;;;;;;;5.70;90.83;100657.21;110076;1279;22937;-58
2023/04/20 00:46:24;;;;;;;26.80;13.20;;;;;;;5.67;91.05;100659.52;110063;1279;22222;-59
2023/04/20 00:48:56;;;;;;;30.00;14.30;;;;;;;5.67;90.82;100659.11;110055;1276;22885;-59
2023/04/20 00:51:27;;;;;;;25.80;13.60;;;;;;;5.69;91.02;100660.33;110071;1267;22171;-58
2023/04/20 00:53:59;;;;;;;33.70;15.00;;;;;;;5.72;91.08;100662.23;110032;1272;22280;-58
2023/04/20 00:56:30;;;;;;;32.10;14.50;;;;;;;5.74;90.99;100658.05;110023;1270;22333;-57
2023/04/20 00:59:01;;;;;;;30.30;15.40;;;;;;;5.74;91.08;100660.98;110031;1273;22795;-56
2023/04/20 01:01:33;;;;;;;31.70;15.00;;;;;;;5.75;90.99;100660.34;110074;1273;22317;-59
2023/04/20 01:04:04;;;;;;;26.40;13.00;;;;;;;5.74;91.06;100661.14;110080;1273;23159;-58
2023/04/20 01:06:35;;;;;;;27.80;14.70;;;;;;;5.73;91.09;100658.46;110043;1272;22330;-56
2023/04/20 01:09:06;;;;;;;33.20;15.10;;;;;;;5.71;91.18;100654.58;110074;1264;22311;-58
2023/04/20 01:11:37;;;;;;;28.90;14.40;;;;;;;5.69;91.29;100651.45;110051;1273;22247;-59
2023/04/20 01:14:08;;;;;;;28.60;14.20;;;;;;;5.67;91.41;100656.96;110060;1273;22346;-57
2023/04/20 01:16:39;;;;;;;31.60;14.80;;;;;;;5.66;91.44;100659.46;110083;1279;22498;-56
2023/04/20 01:19:10;;;;;;;28.90;14.50;;;;;;;5.65;91.44;100662.16;110064;1279;22188;-59
2023/04/20 01:21:40;;;;;;;32.30;15.60;;;;;;;5.67;91.48;100659.34;110069;1273;22174;-58
2023/04/20 01:24:11;;;;;;;31.90;15.70;;;;;;;5.68;91.50;100653.08;110055;1272;22144;-60
2023/04/20 01:26:42;;;;;;;35.30;16.30;;;;;;;5.70;91.51;100647.79;110081;1270;23141;-58
2023/04/20 01:29:13;;;;;;;32.20;14.90;;;;;;;5.73;91.50;100649.14;110038;1273;22285;-58
2023/04/20 01:31:44;;;;;;;29.70;14.10;;;;;;;5.76;91.34;100640.60;110047;1279;22213;-58
2023/04/20 01:34:16;;;;;;;26.00;13.10;;;;;;;5.75;91.30;100637.63;110060;1276;22189;-59
2023/04/20 01:36:47;;;;;;;28.00;13.70;;;;;;;5.75;91.43;100641.48;110046;1270;23012;-56
2023/04/20 01:39:18;;;;;;;30.20;14.00;;;;;;;5.73;91.37;100644.47;110063;1274;22924;-57
2023/04/20 01:41:50;;;;;;;29.00;13.20;;;;;;;5.71;91.43;100649.53;110075;1264;22238;-58
2023/04/20 01:44:21;;;;;;;31.10;15.10;;;;;;;5.69;91.58;100645.83;110074;1267;22938;-57
2023/04/20 01:46:52;;;;;;;30.30;15.10;;;;;;;5.68;91.63;100641.82;110047;1273;22569;-57
2023/04/20 01:49:23;;;;;;;31.70;16.00;;;;;;;5.70;91.63;100633.39;110030;1279;22354;-59
2023/04/20 01:51:54;;;;;;;31.70;15.10;;;;;;;5.72;91.60;100627.09;110024;1274;22217;-59
2023/04/20 01:54:25;;;;;;;27.80;13.10;;;;;;;5.71;91.56;100627.41;110031;1272;22280;-57
2023/04/20 01:56:56;;;;;;;32.30;15.00;;;;;;;5.70;91.58;100629.83;110062;1273;22171;-59
2023/04/20 01:59:27;;;;;;;27.50;13.90;;;;;;;5.72;91.60;100632.41;110058;1264;22202;-59
2023/04/20 02:01:58;;;;;;;29.40;14.50;;;;;;;5.75;91.67;100637.38;110042;1273;22403;-58
2023/04/20 02:04:29;;;;;;;26.10;13.20;;;;;;;5.76;91.52;100632.05;110094;1279;22163;-57
2023/04/20 02:07:00;;;;;;;28.60;13.30;;;;;;;5.73;91.54;100630.14;110052;1270;22123;-59
2023/04/20 02:09:31;;;;;;;27.30;12.50;;;;;;;5.73;91.53;100635.31;110093;1270;22320;-58
2023/04/20 02:12:02;;;;;;;29.10;13.80;;;;;;;5.73;91.45;100635.36;110090;1269;22210;-59
2023/04/20 02:14:33;;;;;;;28.00;13.10;;;;;;;5.75;91.39;100632.30;110051;1264;22304;-58
2023/04/20 02:17:03;;;;;;;27.20;12.70;;;;;;;5.76;91.34;100628.55;110051;1271;22147;-59
2023/04/20 02:19:35;;;;;;;28.50;12.80;;;;;;;5.74;91.23;100627.89;110060;1267;22517;-57
2023/04/20 02:22:06;;;;;;;26.80;12.60;;;;;;;5.75;91.23;100623.59;110080;1276;22628;-61
2023/04/20 02:24:36;;;;;;;27.80;12.70;;;;;;;5.77;91.21;100626.64;110039;1273;22345;-58
2023/04/20 02:27:07;;;;;;;27.20;12.90;;;;;;;5.79;91.26;100621.28;108003;1260;22567;-58
2023/04/20 02:29:38;;;;;;;26.50;12.50;;;;;;;5.80;91.07;100624.67;106684;1278;23943;-57
2023/04/20 02:32:09;;;;;;;25.00;11.80;;;;;;;5.78;90.91;100622.80;106697;1273;22555;-59
2023/04/20 02:34:40;;;;;;;23.50;12.80;;;;;;;5.78;90.93;100624.09;110067;1279;23065;-59
2023/04/20 02:37:11;;;;;;;24.60;11.70;;;;;;;5.76;90.97;100622.80;110048;1264;22320;-60
2023/04/20 02:39:42;;;;;;;26.60;12.40;;;;;;;5.74;91.00;100616.67;110049;1271;22384;-57
2023/04/20 02:42:13;;;;;;;28.20;12.80;;;;;;;5.70;90.89;100610.75;110093;1263;23283;-57
2023/04/20 02:44:44;;;;;;;28.80;11.90;;;;;;;5.69;90.87;100604.38;110160;1264;22299;-59
2023/04/20 02:47:14;;;;;;;30.10;13.20;;;;;;;5.70;91.00;100593.98;110133;1267;22186;-59
2023/04/20 02:49:46;;;;;;;26.00;12.60;;;;;;;5.72;91.20;100592.17;108985;1279;22587;-58
2023/04/20 02:52:17;;;;;;;26.10;12.20;;;;;;;5.72;91.05;100598.52;106598;1279;23102;-58
2023/04/20 02:54:48;;;;;;;24.70;11.60;;;;;;;5.71;90.90;100603.12;106678;1273;22553;-56
2023/04/20 02:57:19;;;;;;;26.40;12.70;;;;;;;5.69;90.76;100611.24;106705;1276;22764;-56
2023/04/20 02:59:50;;;;;;;26.20;12.20;;;;;;;5.70;91.00;100618.77;106689;1274;22667;-58
2023/04/20 03:02:21;;;;;;;29.80;13.20;;;;;;;5.68;91.04;100622.60;106657;1272;22539;-58
2023/04/20 03:04:51;;;;;;;25.80;12.10;;;;;;;5.66;91.07;100622.34;106614;1273;22538;-58
2023/04/20 03:07:22;;;;;;;25.70;12.60;;;;;;;5.63;91.03;100623.61;106622;1279;22828;-58
2023/04/20 03:09:53;;;;;;;32.70;14.70;;;;;;;5.61;91.10;100625.08;106690;1270;22601;-58
2023/04/20 03:12:25;;;;;;;28.90;13.90;;;;;;;5.59;91.22;100621.50;106569;1276;22557;-57
2023/04/20 03:14:56;;;;;;;28.70;14.00;;;;;;;5.59;91.31;100620.33;106526;1270;25976;-55
2023/04/20 03:17:27;;;;;;;27.40;14.50;;;;;;;5.56;91.44;100619.46;106644;1278;26059;-59
2023/04/20 03:19:57;;;;;;;26.90;12.90;;;;;;;5.54;91.45;100619.11;106618;1273;22540;-57
2023/04/20 03:22:29;;;;;;;27.70;13.10;;;;;;;5.51;91.59;100620.85;110048;1279;22238;-60
2023/04/20 03:25:00;;;;;;;32.30;15.80;;;;;;;5.49;91.67;100620.55;110065;1273;22213;-57
2023/04/20 03:27:31;;;;;;;28.40;15.20;;;;;;;5.52;91.58;100614.73;110044;1273;22328;-58
2023/04/20 03:30:02;;;;;;;27.80;12.60;;;;;;;5.55;91.79;100610.70;110047;1269;23006;-58
2023/04/20 03:32:33;;;;;;;33.90;15.20;;;;;;;5.56;91.83;100619.67;110092;1273;22201;-60
2023/04/20 03:35:05;;;;;;;29.20;14.80;;;;;;;5.57;91.71;100618.16;110097;1267;22370;-60
2023/04/20 03:37:36;;;;;;;29.60;13.60;;;;;;;5.60;91.76;100620.77;110053;1279;22286;-61
2023/04/20 03:40:09;;;;;;;30.70;15.70;;;;;;;5.63;91.77;100621.64;109960;1269;22263;-59
2023/04/20 03:42:40;;;;;;;30.90;15.20;;;;;;;5.68;91.76;100619.19;110042;1273;22226;-59
2023/04/20 03:45:13;;;;;;;31.70;15.90;;;;;;;5.69;91.56;100615.61;110072;1274;23101;-60
2023/04/20 03:47:44;;;;;;;29.80;14.70;;;;;;;5.68;91.62;100612.71;110067;1264;22170;-60
2023/04/20 03:50:15;;;;;;;33.60;15.50;;;;;;;5.67;91.68;100616.23;110053;1271;22348;-60
2023/04/20 03:52:46;;;;;;;33.70;16.60;;;;;;;5.64;91.75;100627.45;110044;1273;22183;-60
2023/04/20 03:55:16;;;;;;;32.00;14.90;;;;;;;5.65;91.90;100634.25;110060;1279;22244;-59
2023/04/20 03:57:47;;;;;;;32.10;16.90;;;;;;;5.67;91.83;100639.01;110067;1268;22323;-58
2023/04/20 04:00:19;;;;;;;36.40;16.20;;;;;;;5.69;91.90;100634.91;110104;1273;22208;-59
2023/04/20 04:02:50;;;;;;;32.80;16.40;;;;;;;5.71;91.98;100639.77;110097;1264;23109;-60
2023/04/20 04:05:21;;;;;;;33.20;16.80;;;;;;;5.71;91.89;100641.04;110159;1264;22341;-59
2023/04/20 04:10:40;;;;;;;37.00;18.10;;;;;;;5.74;92.02;100642.23;110165;1264;22247;-61
2023/04/20 04:13:11;;;;;;;36.40;18.30;;;;;;;5.75;92.05;100643.38;110150;1269;22180;-59
2023/04/20 04:15:42;;;;;;;36.40;18.00;;;;;;;5.76;92.03;100646.69;110114;1273;22862;-61
2023/04/20 04:18:13;;;;;;;37.10;18.60;;;;;;;5.78;92.15;100648.06;110021;1270;22387;-62
2023/04/20 04:20:44;;;;;;;38.10;18.80;;;;;;;5.80;92.19;100648.17;110003;1264;22173;-60
2023/04/20 04:23:15;;;;;;;37.50;19.10;;;;;;;5.82;92.27;100642.48;110122;1264;22191;-62
2023/04/20 04:25:46;;;;;;;37.90;18.40;;;;;;;5.83;92.11;100643.50;110126;1278;22256;-61
2023/04/20 04:28:17;;;;;;;37.10;18.80;;;;;;;5.86;92.25;100648.59;110077;1271;22177;-61
2023/04/20 04:30:47;;;;;;;34.70;18.20;;;;;;;5.88;92.29;100644.56;110098;1273;22307;-56
2023/04/20 04:33:19;;;;;;;35.70;19.20;;;;;;;5.89;92.27;100643.21;110149;1264;22220;-58
2023/04/20 04:35:52;;;;;;;35.50;18.90;;;;;;;5.90;92.30;100646.19;110126;1273;22206;-55
2023/04/20 04:38:23;;;;;;;34.60;17.60;;;;;;;5.91;92.46;100643.15;110103;1279;22270;-58
2023/04/20 04:40:55;;;;;;;38.10;18.40;;;;;;;5.91;92.35;100644.66;110052;1273;22367;-55
2023/04/20 04:43:26;;;;;;;38.00;19.30;;;;;;;5.91;92.27;100642.98;110131;1274;22935;-56
2023/04/20 04:45:58;;;;;;;33.50;17.70;;;;;;;5.91;92.32;100647.77;110091;1273;22290;-59
2023/04/20 04:48:29;;;;;;;34.70;18.50;;;;;;;5.90;92.39;100648.73;110101;1271;22343;-56
2023/04/20 04:51:00;;;;;;;36.00;18.80;;;;;;;5.91;92.48;100647.05;110101;1273;22452;-58
2023/04/20 04:53:31;;;;;;;38.60;19.50;;;;;;;5.91;92.39;100653.69;110137;1273;22121;-57
2023/04/20 04:56:02;;;;;;;40.00;19.60;;;;;;;5.92;92.54;100654.78;110121;1271;22393;-55
2023/04/20 04:58:33;;;;;;;42.10;18.90;;;;;;;5.93;92.71;100655.04;110110;1270;22150;-58
2023/04/20 05:01:04;;;;;;;39.30;19.80;;;;;;;5.97;92.75;100656.30;110104;1271;22226;-55
2023/04/20 05:03:35;;;;;;;38.20;21.00;;;;;;;5.98;92.82;100653.00;110113;1273;23017;-59
2023/04/20 05:06:07;;;;;;;39.10;20.60;;;;;;;6.01;92.83;100656.89;110101;1276;22196;-56
2023/04/20 05:08:38;;;;;;;44.30;21.70;;;;;;;6.05;92.93;100659.00;110135;1267;22167;-58
2023/04/20 05:11:09;;;;;;;43.20;20.90;;;;;;;6.11;92.91;100657.71;110090;1274;22191;-57
2023/04/20 05:13:40;;;;;;;40.40;20.90;;;;;;;6.16;92.90;100653.85;110123;1277;22261;-57
2023/04/20 05:16:11;;;;;;;40.70;21.00;;;;;;;6.21;92.87;100655.60;110127;1270;23008;-58
2023/04/20 05:18:42;;;;;;;43.70;22.20;;;;;;;6.26;92.76;100656.02;110116;1274;22247;-58
2023/04/20 05:21:13;;;;;;;40.30;22.20;;;;;;;6.30;92.82;100659.14;110110;1275;22324;-58
2023/04/20 05:23:44;;;;;;;48.00;22.40;;;;;;;6.37;92.86;100661.25;110130;1264;22239;-58
2023/04/20 05:26:15;;;;;;;45.00;22.60;;;;;;;6.40;92.78;100667.40;110099;1276;22341;-56
2023/04/20 05:28:46;;;;;;;46.20;23.20;;;;;;;6.45;92.87;100665.23;110128;1271;22492;-60
2023/04/20 05:31:17;;;;;;;43.90;22.90;;;;;;;6.48;92.81;100665.45;110119;1276;22193;-58
2023/04/20 05:33:48;;;;;;;44.10;22.30;;;;;;;6.49;92.71;100669.93;110073;1273;22169;-56
2023/04/20 05:36:19;;;;;;;37.50;20.40;;;;;;;6.51;92.84;100670.52;110100;1274;22221;-58
2023/04/20 05:38:50;;;;;;;41.20;22.00;;;;;;;6.51;93.02;100672.06;110130;1269;22170;-57
2023/04/20 05:41:25;;;;;;;51.20;22.80;;;;;;;6.53;92.98;100676.55;110168;1277;22238;-58
2023/04/20 05:43:56;;;;;;;41.50;23.80;;;;;;;6.55;93.08;100672.45;110138;1267;22404;-58
2023/04/20 05:46:28;;;;;;;48.90;24.10;;;;;;;6.58;93.11;100679.26;110152;1277;22155;-56
2023/04/20 05:48:58;;;;;;;44.70;23.90;;;;;;;6.60;93.08;100682.60;110153;1270;22245;-56
2023/04/20 05:51:32;;;;;;;42.20;22.60;;;;;;;6.62;93.22;100687.86;110115;1273;22421;-58
2023/04/20 05:54:03;;;;;;;43.10;22.50;;;;;;;6.65;93.24;100686.02;107642;1276;22526;-56
2023/04/20 05:56:34;;;;;;;42.20;22.00;;;;;;;6.65;93.14;100688.80;104736;1269;5428675;-56
2023/04/20 05:59:06;;;;;;;46.50;24.20;;;;;;;6.67;93.36;100684.05;110141;1271;22223;-58
2023/04/20 06:01:37;;;;;;;45.20;24.30;;;;;;;6.70;93.37;100689.77;110118;1275;22201;-59
2023/04/20 06:04:08;;;;;;;44.40;23.50;;;;;;;6.73;93.51;100688.33;110116;1276;22220;-57
2023/04/20 06:06:40;;;;;;;43.00;23.10;;;;;;;6.74;93.38;100692.11;110123;1273;22169;-59
2023/04/20 06:09:10;;;;;;;47.20;23.60;;;;;;;6.74;93.46;100690.84;110127;1274;22229;-55
2023/04/20 06:11:41;;;;;;;42.90;22.20;;;;;;;6.74;93.52;100689.70;108185;1273;22479;-55
2023/04/20 06:14:13;;;;;;;54.10;26.80;;;;;;;6.78;93.73;100691.48;106843;1273;22525;-54
2023/04/20 06:16:44;;;;;;;53.40;26.40;;;;;;;6.83;93.72;100693.46;106992;1278;22738;-55
2023/04/20 06:19:15;;;;;;;48.00;26.50;;;;;;;6.88;93.76;100696.48;106934;1279;22539;-59
2023/04/20 06:21:46;;;;;;;46.40;24.10;;;;;;;6.90;93.69;100699.62;106818;1279;22522;-57
2023/04/20 06:24:17;;;;;;;48.60;26.00;;;;;;;6.91;93.67;100706.10;106820;1273;24189;-55
2023/04/20 06:26:48;;;;;;;44.90;24.00;;;;;;;6.93;93.69;100709.12;106774;1274;22530;-56
2023/04/20 06:29:19;;;;;;;48.70;25.60;;;;;;;6.94;93.76;100705.45;106737;1274;22545;-58
2023/04/20 06:31:49;;;;;;;48.70;26.00;;;;;;;6.94;93.78;100709.23;106857;1280;22521;-58
2023/04/20 06:34:20;;;;;;;55.80;25.60;;;;;;;6.95;93.80;100708.02;106822;1280;22538;-58
2023/04/20 06:36:51;;;;;;;47.40;25.20;;;;;;;6.97;93.87;100706.29;106847;1270;22598;-54
2023/04/20 06:39:22;;;;;;;49.00;25.10;;;;;;;6.97;93.90;100707.06;106872;1272;25436;-55
2023/04/20 06:41:53;;;;;;;54.00;26.60;;;;;;;6.97;93.98;100706.44;106725;1267;25321;-55
2023/04/20 06:44:24;;;;;;;50.50;26.20;;;;;;;6.99;94.06;100706.54;106753;1276;22576;-57
2023/04/20 06:46:54;;;;;;;57.40;26.80;;;;;;;7.03;94.12;100709.13;106703;1273;25507;-57
2023/04/20 06:49:26;;;;;;;52.90;27.00;;;;;;;7.07;94.14;100713.45;106824;1279;22756;-55
2023/04/20 06:51:57;;;;;;;60.00;28.00;;;;;;;7.08;94.09;100713.48;106785;1279;22526;-56
2023/04/20 06:54:27;;;;;;;51.60;24.90;;;;;;;7.12;94.18;100709.79;110059;1274;22257;-55
2023/04/20 06:57:00;;;;;;;48.40;25.20;;;;;;;7.16;94.23;100714.52;110086;1272;22888;-58
2023/04/20 06:59:31;;;;;;;42.60;23.50;;;;;;;7.16;94.11;100711.80;110122;1269;22598;-58
2023/04/20 07:02:02;;;;;;;54.00;26.50;;;;;;;7.20;94.16;100712.25;110054;1263;22445;-56
2023/04/20 07:04:32;;;;;;;51.00;24.60;;;;;;;7.24;94.19;100707.83;110085;1279;22371;-58
2023/04/20 07:07:03;;;;;;;54.50;25.40;;;;;;;7.28;94.01;100716.83;110110;1276;22277;-58
2023/04/20 07:09:34;;;;;;;51.80;27.00;;;;;;;7.32;94.28;100716.34;110085;1279;22649;-59
2023/04/20 07:12:05;;;;;;;51.40;25.80;;;;;;;7.39;94.20;100717.50;110077;1270;22200;-56
2023/04/20 07:14:37;;;;;;;51.30;26.80;;;;;;;7.44;94.19;100713.52;110076;1275;22148;-58
2023/04/20 07:17:07;;;;;;;52.10;26.70;;;;;;;7.49;94.45;100716.38;110052;1273;22207;-59
2023/04/20 07:19:38;;;;;;;48.00;25.00;;;;;;;7.57;94.39;100715.41;110130;1279;23137;-58
2023/04/20 07:22:09;;;;;;;52.50;26.60;;;;;;;7.62;94.27;100719.77;110102;1264;22244;-58
2023/04/20 07:24:40;;;;;;;56.50;27.00;;;;;;;7.68;94.32;100726.52;110095;1273;22320;-59
2023/04/20 07:27:11;;;;;;;56.90;27.40;;;;;;;7.75;94.21;100728.94;110101;1276;22143;-56
2023/04/20 07:29:42;;;;;;;51.70;25.10;;;;;;;7.83;94.31;100729.80;110098;1276;22205;-59
2023/04/20 07:32:13;;;;;;;50.50;25.90;;;;;;;7.85;93.93;100732.88;110086;1272;22328;-58
2023/04/20 07:34:44;;;;;;;58.40;27.60;;;;;;;7.86;93.82;100734.35;110117;1279;22408;-57
2023/04/20 07:37:15;;;;;;;54.10;27.20;;;;;;;7.90;93.99;100735.34;110091;1277;23091;-58
2023/04/20 07:39:46;;;;;;;60.70;29.80;;;;;;;7.94;94.09;100742.97;110104;1273;23144;-59
2023/04/20 07:42:17;;;;;;;54.20;26.90;;;;;;;8.02;94.27;100738.34;110049;1273;22810;-59
2023/04/20 07:44:48;;;;;;;52.80;27.10;;;;;;;8.07;94.19;100738.15;110089;1269;22145;-58
2023/04/20 07:47:19;;;;;;;57.00;28.90;;;;;;;8.13;94.04;100737.55;110100;1276;22356;-58
2023/04/20 07:49:50;;;;;;;62.80;29.90;;;;;;;8.21;94.35;100738.64;110036;1271;23039;-59
2023/04/20 07:52:21;;;;;;;56.20;28.90;;;;;;;8.30;94.59;100739.52;110075;1279;22156;-56
2023/04/20 07:54:53;;;;;;;58.40;28.90;;;;;;;8.41;94.54;100741.05;110071;1276;22168;-56
2023/04/20 07:57:24;;;;;;;57.30;28.30;;;;;;;8.47;94.03;100737.55;110085;1273;22140;-59
2023/04/20 07:59:55;;;;;;;53.50;27.10;;;;;;;8.54;93.89;100734.90;110067;1274;22203;-58
2023/04/20 08:02:25;;;;;;;57.80;29.00;;;;;;;8.61;93.91;100737.05;110089;1276;22159;-59
2023/04/20 08:04:57;;;;;;;54.40;28.70;;;;;;;8.66;93.66;100738.02;110084;1271;22360;-58
2023/04/20 08:07:27;;;;;;;52.40;26.60;;;;;;;8.74;93.54;100742.28;110086;1279;22204;-57
2023/04/20 08:10:00;;;;;;;55.10;26.80;;;;;;;8.79;93.35;100743.61;110079;1276;22166;-57
2023/04/20 08:12:31;;;;;;;52.80;27.20;;;;;;;8.85;93.26;100742.58;109058;1270;25352;-56
2023/04/20 08:15:05;;;;;;;56.70;27.20;;;;;;;8.86;93.23;100736.40;106777;1257;24221;-58
2023/04/20 08:17:36;;;;;;;51.50;25.60;;;;;;;8.92;93.34;100737.77;106679;1279;24840;-57
2023/04/20 08:20:09;;;;;;;54.10;27.40;;;;;;;8.99;93.46;100740.48;110067;1264;23281;-58
2023/04/20 08:22:40;;;;;;;55.10;24.90;;;;;;;9.02;93.14;100741.45;110085;1279;22739;-60
2023/04/20 08:25:11;;;;;;;53.10;25.40;;;;;;;9.07;93.01;100730.27;110053;1270;23072;-56
2023/04/20 08:27:42;;;;;;;52.10;27.20;;;;;;;9.12;92.93;100731.67;110086;1273;22896;-60
2023/04/20 08:30:14;;;;;;;54.30;25.90;;;;;;;9.17;93.01;100740.94;110100;1276;22754;-60
2023/04/20 08:32:45;;;;;;;54.70;28.00;;;;;;;9.21;92.92;100742.73;110044;1276;22180;-60
2023/04/20 08:35:16;;;;;;;54.10;25.50;;;;;;;9.25;92.72;100745.83;110093;1274;22197;-59
2023/04/20 08:37:47;;;;;;;56.60;26.60;;;;;;;9.30;92.97;100744.67;110080;1280;22172;-60
2023/04/20 08:40:19;;;;;;;46.90;24.30;;;;;;;9.35;92.63;100747.39;110053;1280;22186;-65
2023/04/20 08:42:50;;;;;;;48.50;25.60;;;;;;;9.30;92.07;100744.58;110043;1273;23006;-63
2023/04/20 08:45:22;;;;;;;59.50;27.40;;;;;;;9.27;92.30;100741.69;110068;1276;22366;-61
2023/04/20 08:47:53;;;;;;;59.50;29.70;;;;;;;9.28;92.46;100740.67;110026;1273;22139;-62
2023/04/20 08:50:24;;;;;;;54.80;27.70;;;;;;;9.33;92.61;100738.80;110074;1273;22235;-61
2023/04/20 08:52:55;;;;;;;57.40;28.60;;;;;;;9.37;92.31;100740.80;110042;1271;22365;-61
2023/04/20 08:55:26;;;;;;;59.10;29.10;;;;;;;9.39;92.41;100734.59;110054;1279;22172;-62
2023/04/20 08:57:57;;;;;;;53.80;27.40;;;;;;;9.43;92.25;100735.77;110074;1273;22209;-61
2023/04/20 09:00:28;;;;;;;58.90;26.70;;;;;;;9.48;92.12;100732.85;110033;1276;22189;-62
2023/04/20 09:03:00;;;;;;;50.60;26.90;;;;;;;9.53;92.01;100733.27;110019;1276;22149;-61
2023/04/20 09:05:32;;;;;;;52.60;26.30;;;;;;;9.58;92.15;100736.66;110048;1273;22321;-61
2023/04/20 09:08:04;;;;;;;54.30;26.20;;;;;;;9.62;92.16;100740.55;110046;1280;22157;-61
2023/04/20 09:10:43;;;;;;;53.80;27.10;;;;;;;9.66;92.05;100749.48;110027;1279;23087;-60
2023/04/20 09:13:24;;;;;;;61.40;29.80;;;;;;;9.73;92.09;100754.85;110023;1276;22142;-62
2023/04/20 09:15:55;;;;;;;58.90;30.60;;;;;;;9.81;92.37;100755.80;110045;1276;22329;-62
2023/04/20 09:18:26;;;;;;;61.30;28.90;;;;;;;9.90;91.91;100752.62;110028;1269;22656;-61
2023/04/20 09:20:57;;;;;;;56.20;27.30;;;;;;;9.96;91.51;100746.16;110023;1276;22192;-62
2023/04/20 09:23:28;;;;;;;56.80;27.20;;;;;;;10.03;91.25;100747.14;110058;1270;23022;-61
2023/04/20 09:25:58;;;;;;;60.80;31.10;;;;;;;10.12;91.67;100743.19;110039;1273;22322;-61
2023/04/20 09:28:38;;;;;;;59.20;29.50;;;;;;;10.22;91.57;100740.85;110051;1275;22913;-62
2023/04/20 09:31:19;;;;;;;50.60;24.80;;;;;;;10.33;91.81;100746.99;110031;1274;22118;-61
2023/04/20 09:34:00;;;;;;;57.80;28.80;;;;;;;10.40;90.79;100748.36;110017;1276;22253;-62
2023/04/20 09:36:41;;;;;;;57.80;27.40;;;;;;;10.46;90.66;100745.05;110042;1276;22384;-61
2023/04/20 09:39:14;;;;;;;52.40;27.50;;;;;;;10.55;90.52;100746.77;110035;1274;22232;-62
2023/04/20 09:41:45;;;;;;;54.30;27.30;;;;;;;10.63;90.03;100743.04;110064;1270;22921;-61
2023/04/20 09:44:17;;;;;;;50.20;26.20;;;;;;;10.67;89.86;100743.25;110055;1276;22154;-62
2023/04/20 09:46:48;;;;;;;53.80;26.90;;;;;;;10.68;89.34;100738.50;110028;1274;23023;-62
2023/04/20 09:49:20;;;;;;;53.90;26.70;;;;;;;10.69;89.64;100739.09;110049;1280;22212;-62
2023/04/20 09:51:51;;;;;;;55.10;25.30;;;;;;;10.76;90.03;100739.69;110033;1276;22954;-62
2023/04/20 09:54:22;;;;;;;48.90;25.00;;;;;;;10.87;89.75;100735.39;110055;1270;22147;-61
2023/04/20 09:56:54;;;;;;;51.00;25.80;;;;;;;10.92;89.57;100727.71;110036;1276;22894;-62
2023/04/20 09:59:26;;;;;;;48.80;25.70;;;;;;;10.98;89.52;100728.47;110031;1276;22245;-61
2023/04/20 10:01:57;;;;;;;56.00;32.50;;;;;;;11.05;89.32;100733.89;109997;1274;22329;-62
2023/04/20 10:04:28;;;;;;;54.50;27.80;;;;;;;11.16;89.00;100732.78;110066;1280;22148;-62
2023/04/20 10:07:04;;;;;;;51.20;24.60;;;;;;;11.26;88.86;100727.13;110045;1271;22195;-63
2023/04/20 10:09:36;;;;;;;50.20;25.00;;;;;;;11.33;88.45;100720.64;110006;1274;22478;-61
2023/04/20 10:12:12;;;;;;;47.70;23.40;;;;;;;11.40;88.24;100721.73;110022;1264;23001;-62
2023/04/20 10:14:44;;;;;;;48.70;23.70;;;;;;;11.46;87.79;100721.80;110029;1273;22162;-62
2023/04/20 10:17:16;;;;;;;49.50;25.20;;;;;;;11.52;87.83;100723.87;110051;1272;22306;-62
2023/04/20 10:19:47;;;;;;;50.10;25.00;;;;;;;11.55;87.10;100720.93;110052;1280;23168;-62
2023/04/20 10:22:31;;;;;;;45.90;23.50;;;;;;;11.50;86.92;100720.99;110029;1279;22155;-59
2023/04/20 10:25:15;;;;;;;48.70;25.60;;;;;;;11.47;86.82;100720.86;110012;1273;22189;-61
2023/04/20 10:27:56;;;;;;;44.80;22.80;;;;;;;11.48;87.24;100713.60;110023;1276;22163;-62
2023/04/20 10:30:29;;;;;;;49.50;24.50;;;;;;;11.53;87.33;100717.28;110054;1276;22948;-61
2023/04/20 10:33:09;;;;;;;50.90;25.20;;;;;;;11.57;87.02;100713.16;110050;1279;23075;-61
2023/04/20 10:35:49;;;;;;;47.90;25.00;;;;;;;11.63;87.35;100709.90;110071;1277;23031;-62
2023/04/20 10:38:31;;;;;;;54.30;27.80;;;;;;;11.73;87.28;100708.14;110027;1276;22063;-61
2023/04/20 10:41:09;;;;;;;51.70;25.20;;;;;;;11.85;87.24;100706.17;110015;1272;22355;-61
2023/04/20 10:43:42;;;;;;;42.40;22.30;;;;;;;11.95;86.75;100706.38;110041;1279;22364;-61
2023/04/20 10:46:20;;;;;;;45.90;22.30;;;;;;;12.04;86.84;100703.73;110033;1277;22888;-61
2023/04/20 10:48:55;;;;;;;47.50;24.10;;;;;;;12.17;86.69;100700.46;110020;1277;23009;-61
2023/04/20 10:51:27;;;;;;;47.10;24.70;;;;;;;12.27;86.40;100703.96;110037;1276;23029;-61
2023/04/20 10:54:04;;;;;;;49.70;26.20;;;;;;;12.39;86.18;100706.16;110042;1274;22309;-62
2023/04/20 10:56:46;;;;;;;51.90;24.30;;;;;;;12.46;85.47;100702.34;110014;1273;23011;-60
2023/04/20 10:59:18;;;;;;;48.50;24.50;;;;;;;12.45;85.14;100696.95;110030;1276;22838;-62
2023/04/20 11:01:50;;;;;;;45.40;23.90;;;;;;;12.44;84.80;100695.89;110041;1276;22617;-61
2023/04/20 11:04:32;;;;;;;53.10;26.80;;;;;;;12.45;85.49;100693.67;110044;1277;22275;-61
2023/04/20 11:07:09;;;;;;;47.10;24.30;;;;;;;12.55;85.52;100687.23;110036;1276;22971;-62
2023/04/20 11:09:41;;;;;;;48.50;24.50;;;;;;;12.58;84.62;100684.26;110057;1279;22245;-62
2023/04/20 11:12:13;;;;;;;50.10;25.90;;;;;;;12.68;85.06;100684.13;110001;1276;23094;-62
2023/04/20 11:14:56;;;;;;;47.40;22.30;;;;;;;12.80;84.53;100681.38;110003;1276;22227;-61
2023/04/20 11:17:35;;;;;;;49.90;25.20;;;;;;;12.92;84.73;100678.46;110041;1276;22166;-61
2023/04/20 11:20:12;;;;;;;57.70;28.40;;;;;;;13.01;84.25;100680.13;110019;1273;22420;-61
2023/04/20 11:22:44;;;;;;;52.20;26.00;;;;;;;13.11;84.27;100679.29;110040;1279;22380;-66
2023/04/20 11:25:15;;;;;;;51.50;26.00;;;;;;;13.18;83.72;100670.48;110055;1279;22201;-61
2023/04/20 11:27:46;;;;;;;50.20;24.70;;;;;;;13.24;83.67;100666.35;110041;1276;23032;-62
2023/04/20 11:30:17;;;;;;;46.60;23.60;;;;;;;13.35;83.31;100665.65;110034;1277;23059;-61